createdAt,value
2023-04-02T00:02:33.512Z,94.10
2023-04-02T00:07:41.739Z,94.16
2023-04-02T00:13:02.585Z,93.96
2023-04-02T00:18:11.723Z,93.84
2023-04-02T00:23:18.756Z,93.85
2023-04-02T00:28:25.999Z,94.03
2023-04-02T00:33:34.301Z,93.99
2023-04-02T00:38:43.816Z,94.16
2023-04-02T00:43:52.003Z,94.10
2023-04-02T00:49:02.302Z,94.30
2023-04-02T00:54:15.800Z,94.37
2023-04-02T00:59:29.686Z,94.30
2023-04-02T01:04:37.234Z,94.25
2023-04-02T01:09:58.599Z,94.26
2023-04-02T01:15:13.052Z,94.23
2023-04-02T01:20:53.151Z,94.07
2023-04-02T01:26:06.409Z,94.35
2023-04-02T01:31:13.659Z,94.45
2023-04-02T01:36:27.996Z,94.38
2023-04-02T01:41:40.462Z,94.41
2023-04-02T01:46:51.009Z,94.39
2023-04-02T01:51:58.332Z,94.56
2023-04-02T01:57:08.712Z,94.38
2023-04-02T02:02:16.410Z,94.24
2023-04-02T02:07:24.229Z,94.41
2023-04-02T02:12:33.386Z,94.34
2023-04-02T02:17:40.482Z,94.13
2023-04-02T02:22:49.615Z,94.16
2023-04-02T02:28:03.829Z,94.06
2023-04-02T02:33:17.055Z,94.05
2023-04-02T02:38:36.340Z,94.13
2023-04-02T02:43:54.276Z,94.24
2023-04-02T02:49:04.517Z,94.16
2023-04-02T02:54:12.069Z,94.15
2023-04-02T02:59:20.338Z,94.18
2023-04-02T03:04:30.737Z,94.09
2023-04-02T03:09:47.159Z,94.18
2023-04-02T03:15:03.355Z,93.85
2023-04-02T03:20:18.867Z,93.59
2023-04-02T03:25:34.292Z,93.67
2023-04-02T03:30:47.603Z,93.91
2023-04-02T03:36:02.542Z,93.93
2023-04-02T03:41:17.392Z,93.89
2023-04-02T03:46:32.560Z,93.97
2023-04-02T03:51:51.132Z,94.08
2023-04-02T03:56:58.224Z,93.98
2023-04-02T04:02:15.866Z,94.08
2023-04-02T04:07:32.282Z,94.16
2023-04-02T04:12:45.604Z,94.20
2023-04-02T04:18:02.127Z,94.36
2023-04-02T04:23:25.962Z,94.03
2023-04-02T04:28:39.996Z,94.14
2023-04-02T04:33:54.876Z,94.24
2023-04-02T04:39:21.580Z,94.49
2023-04-02T04:44:38.677Z,94.63
2023-04-02T04:49:48.886Z,94.65
2023-04-02T04:54:56.498Z,94.86
2023-04-02T05:00:15.788Z,94.95
2023-04-02T05:05:29.381Z,94.76
2023-04-02T05:10:44.280Z,94.68
2023-04-02T05:16:02.751Z,94.59
2023-04-02T05:21:20.451Z,94.52
2023-04-02T05:26:33.401Z,94.56
2023-04-02T05:31:48.841Z,94.62
2023-04-02T05:36:57.125Z,94.46
2023-04-02T05:42:08.314Z,94.37
2023-04-02T05:47:51.831Z,94.19
2023-04-02T05:53:07.866Z,94.09
2023-04-02T05:58:35.371Z,93.93
2023-04-02T06:03:55.735Z,93.79
2023-04-02T06:09:11.141Z,93.87
2023-04-02T06:14:19.585Z,93.70
2023-04-02T06:19:32.445Z,93.78
2023-04-02T06:24:41.406Z,93.23
2023-04-02T06:29:52.985Z,90.89
2023-04-02T06:35:00.543Z,89.69
2023-04-02T06:40:22.298Z,88.47
2023-04-02T06:45:35.898Z,88.77
2023-04-02T06:51:07.657Z,88.27
2023-04-02T06:56:32.046Z,87.68
2023-04-02T07:01:43.097Z,87.60
2023-04-02T07:06:51.208Z,87.90
2023-04-02T07:11:58.893Z,86.64
2023-04-02T07:17:06.479Z,85.73
2023-04-02T07:22:13.415Z,85.56
2023-04-02T07:27:22.633Z,85.15
2023-04-02T07:32:29.589Z,85.11
2023-04-02T07:37:36.537Z,83.77
2023-04-02T07:42:43.401Z,83.25
2023-04-02T07:47:50.378Z,84.13
2023-04-02T07:52:57.520Z,84.81
2023-04-02T07:58:04.401Z,84.80
2023-04-02T08:03:14.393Z,84.36
2023-04-02T08:08:21.668Z,83.76
2023-04-02T08:13:29.005Z,84.06
2023-04-02T08:18:36.206Z,84.17
2023-04-02T08:23:43.649Z,83.22
2023-04-02T08:28:50.524Z,82.66
2023-04-02T08:33:57.573Z,83.29
2023-04-02T08:39:05.184Z,83.74
2023-04-02T08:44:24.178Z,82.79
2023-04-02T08:49:36.424Z,81.83
2023-04-02T08:54:44.648Z,81.46
2023-04-02T08:59:58.184Z,81.21
2023-04-02T09:05:09.299Z,80.37
2023-04-02T09:10:18.390Z,80.25
2023-04-02T09:15:34.869Z,79.87
2023-04-02T09:20:42.113Z,80.36
2023-04-02T09:26:03.456Z,80.60
2023-04-02T09:31:18.358Z,79.71
2023-04-02T09:36:37.190Z,80.18
2023-04-02T09:41:48.079Z,79.77
2023-04-02T09:47:03.988Z,78.86
2023-04-02T09:52:29.859Z,79.56
2023-04-02T09:57:38.333Z,80.81
2023-04-02T10:02:46.792Z,79.80
2023-04-02T10:07:55.507Z,80.17
2023-04-02T10:13:08.010Z,79.77
2023-04-02T10:18:22.283Z,79.89
2023-04-02T10:23:31.854Z,78.80
2023-04-02T10:28:51.940Z,78.86
2023-04-02T10:34:07.550Z,78.67
2023-04-02T10:39:21.215Z,79.02
2023-04-02T10:44:41.473Z,78.01
2023-04-02T10:49:55.724Z,78.72
2023-04-02T10:55:07.381Z,78.46
2023-04-02T11:00:26.024Z,77.96
2023-04-02T11:05:43.991Z,78.10
2023-04-02T11:10:57.079Z,77.53
2023-04-02T11:16:04.937Z,77.94
2023-04-02T11:21:54.895Z,77.77
2023-04-02T11:27:16.518Z,77.88
2023-04-02T11:32:35.292Z,78.15
2023-04-02T11:37:44.750Z,76.42
2023-04-02T11:42:52.833Z,77.76
2023-04-02T11:48:27.151Z,77.76
2023-04-02T11:53:36.100Z,76.84
2023-04-02T11:58:54.976Z,76.95
2023-04-02T12:04:36.738Z,76.85
2023-04-02T12:09:50.825Z,76.31
2023-04-02T12:14:58.909Z,77.21
2023-04-02T12:20:21.591Z,77.82
2023-04-02T12:25:33.046Z,76.13
2023-04-02T12:30:41.562Z,77.01
2023-04-02T12:35:50.375Z,76.87
2023-04-02T12:40:58.700Z,76.46
2023-04-02T12:46:08.801Z,76.68
2023-04-02T12:51:17.245Z,76.93
2023-04-02T12:56:25.889Z,76.47
2023-04-02T13:01:34.030Z,75.56
2023-04-02T13:06:44.275Z,75.97
2023-04-02T13:11:51.313Z,76.10
2023-04-02T13:16:58.532Z,76.35
2023-04-02T13:22:28.686Z,76.90
2023-04-02T13:27:35.784Z,76.12
2023-04-02T13:32:42.762Z,76.41
2023-04-02T13:37:50.021Z,76.23
2023-04-02T13:42:57.078Z,76.61
2023-04-02T13:48:04.239Z,76.24
2023-04-02T13:53:20.784Z,75.89
2023-04-02T13:58:27.855Z,76.73
2023-04-02T14:03:35.668Z,76.62
2023-04-02T14:08:55.878Z,76.85
2023-04-02T14:14:19.556Z,76.76
2023-04-02T14:19:37.336Z,75.69
2023-04-02T14:24:54.675Z,75.97
2023-04-02T14:30:08.109Z,76.71
2023-04-02T14:35:24.137Z,76.33
2023-04-02T14:40:37.985Z,75.92
2023-04-02T14:46:02.911Z,76.77
2023-04-02T14:51:17.075Z,76.92
2023-04-02T14:56:25.720Z,76.48
2023-04-02T15:01:39.478Z,76.04
2023-04-02T15:06:50.345Z,75.71
2023-04-02T15:12:01.128Z,76.15
2023-04-02T15:17:11.232Z,76.36
2023-04-02T15:22:30.845Z,75.93
2023-04-02T15:27:53.091Z,76.36
2023-04-02T15:33:20.659Z,76.25
2023-04-02T15:38:35.174Z,75.89
2023-04-02T15:43:46.055Z,76.50
2023-04-02T15:49:06.245Z,75.69
2023-04-02T15:54:25.959Z,75.61
2023-04-02T15:59:58.919Z,75.23
2023-04-02T16:05:16.113Z,74.17
2023-04-02T16:10:41.003Z,74.39
2023-04-02T16:15:54.808Z,75.00
2023-04-02T16:21:03.956Z,74.97
2023-04-02T16:26:24.849Z,75.26
2023-04-02T16:31:39.551Z,75.89
2023-04-02T16:36:56.081Z,76.61
2023-04-02T16:42:16.599Z,77.31
2023-04-02T16:47:40.300Z,77.50
2023-04-02T16:52:54.249Z,77.42
2023-04-02T16:58:14.077Z,77.47
2023-04-02T17:03:40.431Z,77.37
2023-04-02T17:08:54.773Z,77.86
2023-04-02T17:14:07.243Z,77.99
2023-04-02T17:19:16.653Z,78.07
2023-04-02T17:24:31.013Z,78.18
2023-04-02T17:29:39.872Z,78.12
2023-04-02T17:34:46.866Z,78.15
2023-04-02T17:40:03.092Z,78.41
2023-04-02T17:45:18.465Z,78.38
2023-04-02T17:50:39.502Z,77.91
2023-04-02T17:55:57.519Z,77.82
2023-04-02T18:01:13.394Z,77.46
2023-04-02T18:06:25.753Z,76.47
2023-04-02T18:11:43.269Z,76.28
2023-04-02T18:16:58.141Z,76.76
2023-04-02T18:22:14.497Z,76.39
2023-04-02T18:27:31.984Z,76.13
2023-04-02T18:32:57.284Z,76.19
2023-04-02T18:38:20.186Z,76.13
2023-04-02T18:43:38.311Z,75.72
2023-04-02T18:48:53.796Z,75.59
2023-04-02T18:54:16.430Z,76.10
2023-04-02T18:59:39.519Z,76.03
2023-04-02T19:04:53.014Z,76.10
2023-04-02T19:10:27.639Z,76.13
2023-04-02T19:15:44.453Z,76.28
2023-04-02T19:20:58.076Z,76.24
2023-04-02T19:26:09.723Z,76.29
2023-04-02T19:31:30.539Z,75.94
2023-04-02T19:36:49.567Z,75.17
2023-04-02T19:42:03.725Z,75.27
2023-04-02T19:47:14.259Z,75.29
2023-04-02T19:52:21.926Z,74.88
2023-04-02T19:57:29.221Z,75.32
2023-04-02T20:02:36.116Z,74.94
2023-04-02T20:07:43.373Z,75.06
2023-04-02T20:12:50.637Z,75.26
2023-04-02T20:17:57.759Z,73.66
2023-04-02T20:23:04.727Z,72.76
2023-04-02T20:28:12.210Z,71.85
2023-04-02T20:33:19.653Z,71.80
2023-04-02T20:38:27.510Z,70.40
2023-04-02T20:43:36.032Z,70.93
2023-04-02T20:48:43.411Z,69.28
2023-04-02T20:53:50.412Z,68.75
2023-04-02T20:58:57.651Z,68.77
2023-04-02T21:04:06.045Z,68.67
2023-04-02T21:09:17.292Z,68.81
2023-04-02T21:14:24.222Z,69.26
2023-04-02T21:19:32.904Z,68.58
2023-04-02T21:24:39.872Z,70.08
2023-04-02T21:29:46.857Z,70.42
2023-04-02T21:34:54.994Z,70.03
2023-04-02T21:40:01.976Z,70.18
2023-04-02T21:45:10.527Z,70.36
2023-04-02T21:50:17.557Z,69.89
2023-04-02T21:55:24.405Z,69.82
2023-04-02T22:00:31.332Z,70.07
2023-04-02T22:05:39.174Z,70.63
2023-04-02T22:10:46.563Z,69.89
2023-04-02T22:15:53.517Z,70.71
2023-04-02T22:21:01.951Z,69.57
2023-04-02T22:26:10.533Z,69.62
2023-04-02T22:31:19.645Z,69.24
2023-04-02T22:36:28.940Z,69.11
2023-04-02T22:41:36.345Z,69.43
2023-04-02T22:46:43.266Z,69.39
2023-04-02T22:51:50.422Z,69.11
2023-04-02T22:56:57.396Z,69.90
2023-04-02T23:02:04.284Z,69.86
2023-04-02T23:07:11.497Z,70.21
2023-04-02T23:12:18.589Z,70.22
2023-04-02T23:17:25.580Z,70.88
2023-04-02T23:22:32.601Z,71.22
2023-04-02T23:27:39.531Z,71.54
2023-04-02T23:32:46.519Z,71.84
2023-04-02T23:37:53.468Z,72.15
2023-04-02T23:43:00.416Z,72.50
2023-04-02T23:48:07.959Z,72.77
2023-04-02T23:53:16.457Z,73.15
2023-04-02T23:58:23.413Z,73.45
